sensor_id;sensor_type;location;lat;lon;timestamp;pressure;altitude;pressure_sealevel;temperature;humidity
58967;BME280;44744;51.894;5.080;2023-03-18T00:00:27;100887.74;;;12.27;68.06
58967;BME280;44744;51.894;5.080;2023-03-18T00:01:27;100888.91;;;12.28;68.04
58967;BME280;44744;51.894;5.080;2023-03-18T00:02:27;100886.46;;;12.28;68.06
58967;BME280;44744;51.894;5.080;2023-03-18T00:03:32;100887.74;;;12.27;68.05
58967;BME280;44744;51.894;5.080;2023-03-18T00:04:33;100889.77;;;12.26;68.02
58967;BME280;44744;51.894;5.080;2023-03-18T00:07:35;100885.59;;;12.22;68.45
58967;BME280;44744;51.894;5.080;2023-03-18T00:08:37;100885.85;;;12.21;68.42
58967;BME280;44744;51.894;5.080;2023-03-18T00:09:38;100886.23;;;12.20;68.24
58967;BME280;44744;51.894;5.080;2023-03-18T00:10:38;100888.02;;;12.20;68.39
58967;BME280;44744;51.894;5.080;2023-03-18T00:11:39;100891.73;;;12.20;68.29
58967;BME280;44744;51.894;5.080;2023-03-18T00:12:40;100888.71;;;12.20;68.42
58967;BME280;44744;51.894;5.080;2023-03-18T00:13:41;100890.40;;;12.19;68.30
58967;BME280;44744;51.894;5.080;2023-03-18T00:14:41;100890.67;;;12.17;68.38
58967;BME280;44744;51.894;5.080;2023-03-18T00:15:41;100890.65;;;12.18;68.48
58967;BME280;44744;51.894;5.080;2023-03-18T00:16:43;100890.35;;;12.17;68.45
58967;BME280;44744;51.894;5.080;2023-03-18T00:17:45;100889.89;;;12.16;68.53
58967;BME280;44744;51.894;5.080;2023-03-18T00:18:45;100890.30;;;12.15;68.55
58967;BME280;44744;51.894;5.080;2023-03-18T00:19:46;100891.23;;;12.14;68.69
58967;BME280;44744;51.894;5.080;2023-03-18T00:20:46;100890.39;;;12.13;68.56
58967;BME280;44744;51.894;5.080;2023-03-18T00:21:47;100891.47;;;12.13;68.65
58967;BME280;44744;51.894;5.080;2023-03-18T00:22:47;100894.36;;;12.12;68.68
58967;BME280;44744;51.894;5.080;2023-03-18T00:23:47;100893.86;;;12.11;68.70
58967;BME280;44744;51.894;5.080;2023-03-18T00:24:48;100895.52;;;12.10;68.87
58967;BME280;44744;51.894;5.080;2023-03-18T00:25:51;100890.26;;;12.09;68.87
58967;BME280;44744;51.894;5.080;2023-03-18T00:26:52;100888.39;;;12.08;68.73
58967;BME280;44744;51.894;5.080;2023-03-18T00:27:53;100887.68;;;12.08;68.86
58967;BME280;44744;51.894;5.080;2023-03-18T00:28:57;100885.59;;;12.07;68.86
58967;BME280;44744;51.894;5.080;2023-03-18T00:29:58;100885.63;;;12.06;68.70
58967;BME280;44744;51.894;5.080;2023-03-18T00:31:07;100884.30;;;12.05;69.02
58967;BME280;44744;51.894;5.080;2023-03-18T00:32:13;100883.68;;;12.04;69.00
58967;BME280;44744;51.894;5.080;2023-03-18T00:33:14;100881.88;;;12.01;68.93
58967;BME280;44744;51.894;5.080;2023-03-18T00:34:14;100884.41;;;12.01;69.02
58967;BME280;44744;51.894;5.080;2023-03-18T00:35:15;100885.96;;;11.99;69.04
58967;BME280;44744;51.894;5.080;2023-03-18T00:36:16;100886.19;;;11.98;69.08
58967;BME280;44744;51.894;5.080;2023-03-18T00:37:16;100884.30;;;11.97;69.14
58967;BME280;44744;51.894;5.080;2023-03-18T00:38:16;100887.02;;;11.96;69.17
58967;BME280;44744;51.894;5.080;2023-03-18T00:39:17;100887.61;;;11.94;69.31
58967;BME280;44744;51.894;5.080;2023-03-18T00:40:17;100885.06;;;11.92;69.45
58967;BME280;44744;51.894;5.080;2023-03-18T00:41:17;100886.84;;;11.92;69.48
58967;BME280;44744;51.894;5.080;2023-03-18T00:42:18;100886.04;;;11.90;69.55
58967;BME280;44744;51.894;5.080;2023-03-18T00:43:20;100883.95;;;11.90;69.43
58967;BME280;44744;51.894;5.080;2023-03-18T00:44:21;100887.72;;;11.89;69.46
58967;BME280;44744;51.894;5.080;2023-03-18T00:45:23;100885.32;;;11.88;69.51
58967;BME280;44744;51.894;5.080;2023-03-18T00:46:25;100886.29;;;11.86;69.63
58967;BME280;44744;51.894;5.080;2023-03-18T00:47:26;100888.48;;;11.85;69.56
58967;BME280;44744;51.894;5.080;2023-03-18T00:48:27;100889.23;;;11.84;69.70
58967;BME280;44744;51.894;5.080;2023-03-18T00:49:27;100887.68;;;11.84;69.68
58967;BME280;44744;51.894;5.080;2023-03-18T00:50:28;100888.99;;;11.83;69.80
58967;BME280;44744;51.894;5.080;2023-03-18T00:51:29;100892.80;;;11.81;69.77
58967;BME280;44744;51.894;5.080;2023-03-18T00:52:30;100892.05;;;11.78;69.93
58967;BME280;44744;51.894;5.080;2023-03-18T00:53:30;100892.61;;;11.75;70.08
58967;BME280;44744;51.894;5.080;2023-03-18T00:54:30;100893.63;;;11.73;70.00
58967;BME280;44744;51.894;5.080;2023-03-18T00:55:32;100889.25;;;11.72;69.87
58967;BME280;44744;51.894;5.080;2023-03-18T00:56:33;100894.80;;;11.71;70.05
58967;BME280;44744;51.894;5.080;2023-03-18T00:57:34;100889.11;;;11.69;69.99
58967;BME280;44744;51.894;5.080;2023-03-18T00:58:34;100891.23;;;11.69;70.06
58967;BME280;44744;51.894;5.080;2023-03-18T00:59:34;100890.23;;;11.67;70.17
58967;BME280;44744;51.894;5.080;2023-03-18T01:00:39;100890.46;;;11.67;70.38
58967;BME280;44744;51.894;5.080;2023-03-18T01:01:39;100889.51;;;11.65;70.27
58967;BME280;44744;51.894;5.080;2023-03-18T01:02:40;100889.51;;;11.65;70.31
58967;BME280;44744;51.894;5.080;2023-03-18T01:03:42;100887.42;;;11.64;70.36
58967;BME280;44744;51.894;5.080;2023-03-18T01:04:43;100884.30;;;11.63;70.51
58967;BME280;44744;51.894;5.080;2023-03-18T01:05:43;100889.99;;;11.62;70.47
58967;BME280;44744;51.894;5.080;2023-03-18T01:06:43;100885.44;;;11.61;70.52
58967;BME280;44744;51.894;5.080;2023-03-18T01:07:44;100886.88;;;11.61;70.71
58967;BME280;44744;51.894;5.080;2023-03-18T01:08:44;100885.82;;;11.61;70.66
58967;BME280;44744;51.894;5.080;2023-03-18T01:09:44;100886.38;;;11.60;70.51
58967;BME280;44744;51.894;5.080;2023-03-18T01:10:45;100885.09;;;11.58;70.63
58967;BME280;44744;51.894;5.080;2023-03-18T01:11:45;100887.97;;;11.57;70.73
58967;BME280;44744;51.894;5.080;2023-03-18T01:12:45;100890.32;;;11.57;70.93
58967;BME280;44744;51.894;5.080;2023-03-18T01:13:46;100889.31;;;11.56;70.96
58967;BME280;44744;51.894;5.080;2023-03-18T01:14:47;100888.23;;;11.56;70.99
58967;BME280;44744;51.894;5.080;2023-03-18T01:15:48;100885.62;;;11.55;71.06
58967;BME280;44744;51.894;5.080;2023-03-18T01:16:49;100885.78;;;11.55;71.12
58967;BME280;44744;51.894;5.080;2023-03-18T01:17:50;100884.72;;;11.56;71.11
58967;BME280;44744;51.894;5.080;2023-03-18T01:18:52;100888.08;;;11.56;71.16
58967;BME280;44744;51.894;5.080;2023-03-18T01:19:52;100885.61;;;11.55;71.04
58967;BME280;44744;51.894;5.080;2023-03-18T01:20:53;100886.89;;;11.55;71.12
58967;BME280;44744;51.894;5.080;2023-03-18T01:21:53;100891.48;;;11.55;71.10
58967;BME280;44744;51.894;5.080;2023-03-18T01:22:53;100897.64;;;11.56;71.22
58967;BME280;44744;51.894;5.080;2023-03-18T01:23:54;100898.37;;;11.55;71.28
58967;BME280;44744;51.894;5.080;2023-03-18T01:24:57;100897.64;;;11.56;71.30
58967;BME280;44744;51.894;5.080;2023-03-18T01:25:57;100900.60;;;11.54;71.22
58967;BME280;44744;51.894;5.080;2023-03-18T01:26:58;100898.70;;;11.53;71.38
58967;BME280;44744;51.894;5.080;2023-03-18T01:27:58;100900.80;;;11.53;71.33
58967;BME280;44744;51.894;5.080;2023-03-18T01:28:58;100897.34;;;11.52;71.43
58967;BME280;44744;51.894;5.080;2023-03-18T01:29:59;100896.30;;;11.51;71.36
58967;BME280;44744;51.894;5.080;2023-03-18T01:30:59;100896.31;;;11.51;71.47
58967;BME280;44744;51.894;5.080;2023-03-18T01:32:00;100894.58;;;11.51;71.50
58967;BME280;44744;51.894;5.080;2023-03-18T01:33:02;100894.61;;;11.50;71.57
58967;BME280;44744;51.894;5.080;2023-03-18T01:34:02;100893.05;;;11.49;71.50
58967;BME280;44744;51.894;5.080;2023-03-18T01:35:03;100895.20;;;11.49;71.68
58967;BME280;44744;51.894;5.080;2023-03-18T01:36:04;100896.30;;;11.48;71.76
58967;BME280;44744;51.894;5.080;2023-03-18T01:37:04;100894.47;;;11.47;71.66
58967;BME280;44744;51.894;5.080;2023-03-18T01:38:05;100899.49;;;11.45;71.76
58967;BME280;44744;51.894;5.080;2023-03-18T01:39:06;100896.35;;;11.44;71.77
58967;BME280;44744;51.894;5.080;2023-03-18T01:40:09;100900.88;;;11.46;71.82
58967;BME280;44744;51.894;5.080;2023-03-18T01:41:11;100898.03;;;11.46;71.84
58967;BME280;44744;51.894;5.080;2023-03-18T01:42:11;100898.18;;;11.47;71.79
58967;BME280;44744;51.894;5.080;2023-03-18T01:43:18;100898.87;;;11.47;71.93
58967;BME280;44744;51.894;5.080;2023-03-18T01:44:22;100898.33;;;11.47;71.99
58967;BME280;44744;51.894;5.080;2023-03-18T01:45:28;100899.38;;;11.47;71.94
58967;BME280;44744;51.894;5.080;2023-03-18T01:47:32;100900.61;;;11.47;72.12
58967;BME280;44744;51.894;5.080;2023-03-18T01:48:36;100901.45;;;11.48;71.97
58967;BME280;44744;51.894;5.080;2023-03-18T01:49:48;100892.68;;;11.47;71.85
58967;BME280;44744;51.894;5.080;2023-03-18T01:51:03;100897.05;;;11.48;72.15
58967;BME280;44744;51.894;5.080;2023-03-18T01:52:24;100891.39;;;11.45;71.99
58967;BME280;44744;51.894;5.080;2023-03-18T01:53:30;100893.72;;;11.44;72.00
58967;BME280;44744;51.894;5.080;2023-03-18T01:54:36;100892.14;;;11.44;72.10
58967;BME280;44744;51.894;5.080;2023-03-18T01:55:39;100891.77;;;11.44;72.10
58967;BME280;44744;51.894;5.080;2023-03-18T01:56:44;100896.73;;;11.44;72.20
58967;BME280;44744;51.894;5.080;2023-03-18T01:57:47;100894.74;;;11.45;72.09
58967;BME280;44744;51.894;5.080;2023-03-18T01:58:51;100897.77;;;11.44;72.09
58967;BME280;44744;51.894;5.080;2023-03-18T01:59:54;100900.48;;;11.43;72.20
58967;BME280;44744;51.894;5.080;2023-03-18T02:00:59;100900.51;;;11.43;72.10
58967;BME280;44744;51.894;5.080;2023-03-18T02:02:09;100899.60;;;11.43;72.06
58967;BME280;44744;51.894;5.080;2023-03-18T02:03:11;100901.21;;;11.43;72.11
58967;BME280;44744;51.894;5.080;2023-03-18T02:04:12;100902.28;;;11.42;72.19
58967;BME280;44744;51.894;5.080;2023-03-18T02:05:16;100903.70;;;11.43;72.23
58967;BME280;44744;51.894;5.080;2023-03-18T02:06:17;100902.11;;;11.43;71.99
58967;BME280;44744;51.894;5.080;2023-03-18T02:07:29;100900.73;;;11.42;72.19
58967;BME280;44744;51.894;5.080;2023-03-18T02:08:29;100900.88;;;11.43;72.15
58967;BME280;44744;51.894;5.080;2023-03-18T02:09:30;100897.40;;;11.41;72.05
58967;BME280;44744;51.894;5.080;2023-03-18T02:10:31;100900.04;;;11.42;72.14
58967;BME280;44744;51.894;5.080;2023-03-18T02:11:34;100900.11;;;11.40;72.13
58967;BME280;44744;51.894;5.080;2023-03-18T02:12:38;100897.54;;;11.42;72.13
58967;BME280;44744;51.894;5.080;2023-03-18T02:13:43;100899.70;;;11.41;72.10
58967;BME280;44744;51.894;5.080;2023-03-18T02:14:44;100899.75;;;11.40;71.99
58967;BME280;44744;51.894;5.080;2023-03-18T02:15:50;100899.60;;;11.40;71.92
58967;BME280;44744;51.894;5.080;2023-03-18T02:17:09;100901.56;;;11.40;72.21
58967;BME280;44744;51.894;5.080;2023-03-18T02:18:26;100897.05;;;11.38;72.27
58967;BME280;44744;51.894;5.080;2023-03-18T02:28:13;100904.32;;;11.32;72.26
58967;BME280;44744;51.894;5.080;2023-03-18T02:29:16;100905.39;;;11.32;72.38
58967;BME280;44744;51.894;5.080;2023-03-18T02:30:25;100912.11;;;11.32;72.03
58967;BME280;44744;51.894;5.080;2023-03-18T02:31:25;100913.16;;;11.32;72.20
58967;BME280;44744;51.894;5.080;2023-03-18T02:32:28;100912.30;;;11.32;72.27
58967;BME280;44744;51.894;5.080;2023-03-18T02:33:34;100913.27;;;11.31;72.29
58967;BME280;44744;51.894;5.080;2023-03-18T02:34:36;100911.55;;;11.30;72.21
58967;BME280;44744;51.894;5.080;2023-03-18T02:35:39;100909.07;;;11.30;72.17
58967;BME280;44744;51.894;5.080;2023-03-18T02:36:42;100908.17;;;11.30;72.31
58967;BME280;44744;51.894;5.080;2023-03-18T02:37:42;100908.55;;;11.29;72.35
58967;BME280;44744;51.894;5.080;2023-03-18T02:38:44;100908.01;;;11.30;72.29
58967;BME280;44744;51.894;5.080;2023-03-18T02:39:46;100910.78;;;11.30;72.28
58967;BME280;44744;51.894;5.080;2023-03-18T02:40:46;100910.23;;;11.31;72.18
58967;BME280;44744;51.894;5.080;2023-03-18T02:41:46;100915.55;;;11.31;72.30
58967;BME280;44744;51.894;5.080;2023-03-18T02:42:47;100915.73;;;11.31;72.35
58967;BME280;44744;51.894;5.080;2023-03-18T02:43:52;100917.05;;;11.29;72.32
58967;BME280;44744;51.894;5.080;2023-03-18T02:44:52;100917.09;;;11.28;72.28
58967;BME280;44744;51.894;5.080;2023-03-18T02:46:22;100919.75;;;11.28;72.29
58967;BME280;44744;51.894;5.080;2023-03-18T02:47:27;100917.43;;;11.25;72.20
58967;BME280;44744;51.894;5.080;2023-03-18T02:48:35;100921.46;;;11.26;72.29
58967;BME280;44744;51.894;5.080;2023-03-18T02:49:36;100918.14;;;11.25;72.48
58967;BME280;44744;51.894;5.080;2023-03-18T02:50:36;100917.64;;;11.25;72.44
58967;BME280;44744;51.894;5.080;2023-03-18T02:51:37;100915.38;;;11.24;72.30
58967;BME280;44744;51.894;5.080;2023-03-18T02:52:37;100913.58;;;11.25;72.35
58967;BME280;44744;51.894;5.080;2023-03-18T02:53:38;100916.36;;;11.26;72.39
58967;BME280;44744;51.894;5.080;2023-03-18T02:54:38;100916.64;;;11.27;72.51
58967;BME280;44744;51.894;5.080;2023-03-18T02:55:38;100917.52;;;11.27;72.39
58967;BME280;44744;51.894;5.080;2023-03-18T02:56:40;100923.30;;;11.28;72.33
58967;BME280;44744;51.894;5.080;2023-03-18T02:57:40;100921.70;;;11.28;72.24
58967;BME280;44744;51.894;5.080;2023-03-18T02:58:41;100922.05;;;11.28;72.19
58967;BME280;44744;51.894;5.080;2023-03-18T02:59:42;100923.07;;;11.29;72.24
58967;BME280;44744;51.894;5.080;2023-03-18T03:00:43;100923.27;;;11.28;72.39
58967;BME280;44744;51.894;5.080;2023-03-18T03:01:45;100920.27;;;11.29;72.28
58967;BME280;44744;51.894;5.080;2023-03-18T03:02:46;100923.77;;;11.29;72.25
58967;BME280;44744;51.894;5.080;2023-03-18T03:03:47;100925.55;;;11.29;72.13
58967;BME280;44744;51.894;5.080;2023-03-18T03:04:47;100922.52;;;11.30;72.46
58967;BME280;44744;51.894;5.080;2023-03-18T03:05:47;100923.57;;;11.30;72.31
58967;BME280;44744;51.894;5.080;2023-03-18T03:06:49;100927.42;;;11.31;72.39
58967;BME280;44744;51.894;5.080;2023-03-18T03:07:49;100928.66;;;11.31;72.33
58967;BME280;44744;51.894;5.080;2023-03-18T03:08:50;100924.16;;;11.28;72.19
58967;BME280;44744;51.894;5.080;2023-03-18T03:09:50;100929.84;;;11.28;72.22
58967;BME280;44744;51.894;5.080;2023-03-18T03:10:51;100931.06;;;11.28;72.40
58967;BME280;44744;51.894;5.080;2023-03-18T03:11:51;100930.52;;;11.29;72.26
58967;BME280;44744;51.894;5.080;2023-03-18T03:12:51;100932.80;;;11.30;72.29
58967;BME280;44744;51.894;5.080;2023-03-18T03:13:52;100931.20;;;11.30;72.35
58967;BME280;44744;51.894;5.080;2023-03-18T03:14:54;100934.92;;;11.29;72.25
58967;BME280;44744;51.894;5.080;2023-03-18T03:15:55;100932.80;;;11.29;72.33
58967;BME280;44744;51.894;5.080;2023-03-18T03:16:55;100935.13;;;11.28;72.39
58967;BME280;44744;51.894;5.080;2023-03-18T03:17:56;100937.45;;;11.28;72.51
58967;BME280;44744;51.894;5.080;2023-03-18T03:18:56;100935.70;;;11.28;72.50
58967;BME280;44744;51.894;5.080;2023-03-18T03:19:56;100931.88;;;11.27;72.49
58967;BME280;44744;51.894;5.080;2023-03-18T03:20:57;100932.92;;;11.27;72.53
58967;BME280;44744;51.894;5.080;2023-03-18T03:21:57;100933.89;;;11.28;72.49
58967;BME280;44744;51.894;5.080;2023-03-18T03:22:58;100933.08;;;11.27;72.59
58967;BME280;44744;51.894;5.080;2023-03-18T03:23:58;100935.36;;;11.27;72.52
58967;BME280;44744;51.894;5.080;2023-03-18T03:24:59;100938.67;;;11.28;72.53
58967;BME280;44744;51.894;5.080;2023-03-18T03:25:59;100938.33;;;11.28;72.75
58967;BME280;44744;51.894;5.080;2023-03-18T03:27:00;100941.55;;;11.28;72.59
58967;BME280;44744;51.894;5.080;2023-03-18T03:28:00;100943.02;;;11.27;72.85
58967;BME280;44744;51.894;5.080;2023-03-18T03:29:02;100940.16;;;11.27;72.73
58967;BME280;44744;51.894;5.080;2023-03-18T03:30:05;100939.25;;;11.27;72.74
58967;BME280;44744;51.894;5.080;2023-03-18T03:31:08;100944.50;;;11.28;72.75
58967;BME280;44744;51.894;5.080;2023-03-18T03:32:08;100945.54;;;11.29;72.94
58967;BME280;44744;51.894;5.080;2023-03-18T03:33:10;100946.27;;;11.29;72.83
58967;BME280;44744;51.894;5.080;2023-03-18T03:34:10;100946.45;;;11.29;72.75
58967;BME280;44744;51.894;5.080;2023-03-18T03:35:16;100950.71;;;11.29;72.93
58967;BME280;44744;51.894;5.080;2023-03-18T03:36:16;100946.13;;;11.28;72.85
58967;BME280;44744;51.894;5.080;2023-03-18T03:37:17;100947.55;;;11.28;72.91
58967;BME280;44744;51.894;5.080;2023-03-18T03:38:17;100951.44;;;11.28;73.02
58967;BME280;44744;51.894;5.080;2023-03-18T03:39:18;100951.85;;;11.27;73.02
58967;BME280;44744;51.894;5.080;2023-03-18T03:40:22;100953.42;;;11.27;73.08
58967;BME280;44744;51.894;5.080;2023-03-18T03:41:22;100952.42;;;11.26;73.15
58967;BME280;44744;51.894;5.080;2023-03-18T03:42:22;100952.58;;;11.27;73.13
58967;BME280;44744;51.894;5.080;2023-03-18T03:43:22;100952.08;;;11.26;73.22
58967;BME280;44744;51.894;5.080;2023-03-18T03:44:23;100952.08;;;11.26;73.17
58967;BME280;44744;51.894;5.080;2023-03-18T03:45:23;100952.27;;;11.26;73.21
58967;BME280;44744;51.894;5.080;2023-03-18T03:46:23;100955.10;;;11.26;73.17
58967;BME280;44744;51.894;5.080;2023-03-18T03:47:24;100952.64;;;11.26;73.29
58967;BME280;44744;51.894;5.080;2023-03-18T03:48:24;100951.95;;;11.26;73.29
58967;BME280;44744;51.894;5.080;2023-03-18T03:49:24;100952.51;;;11.25;73.42
58967;BME280;44744;51.894;5.080;2023-03-18T03:50:25;100953.58;;;11.24;73.50
58967;BME280;44744;51.894;5.080;2023-03-18T03:51:25;100954.53;;;11.23;73.48
58967;BME280;44744;51.894;5.080;2023-03-18T03:52:25;100953.00;;;11.22;73.39
58967;BME280;44744;51.894;5.080;2023-03-18T03:53:26;100951.10;;;11.22;73.41
58967;BME280;44744;51.894;5.080;2023-03-18T03:54:26;100952.52;;;11.21;73.57
58967;BME280;44744;51.894;5.080;2023-03-18T03:55:27;100951.10;;;11.22;73.60
58967;BME280;44744;51.894;5.080;2023-03-18T03:56:27;100954.02;;;11.20;73.67
58967;BME280;44744;51.894;5.080;2023-03-18T03:57:28;100953.70;;;11.19;73.79
58967;BME280;44744;51.894;5.080;2023-03-18T03:58:28;100954.63;;;11.19;73.75
58967;BME280;44744;51.894;5.080;2023-03-18T03:59:28;100952.84;;;11.19;73.86
58967;BME280;44744;51.894;5.080;2023-03-18T04:00:28;100948.64;;;11.18;73.83
58967;BME280;44744;51.894;5.080;2023-03-18T04:01:29;100951.30;;;11.18;73.83
58967;BME280;44744;51.894;5.080;2023-03-18T04:02:30;100953.23;;;11.18;73.75
58967;BME280;44744;51.894;5.080;2023-03-18T04:03:31;100953.65;;;11.17;73.86
58967;BME280;44744;51.894;5.080;2023-03-18T04:04:31;100954.36;;;11.17;74.05
58967;BME280;44744;51.894;5.080;2023-03-18T04:05:32;100957.52;;;11.18;74.06
58967;BME280;44744;51.894;5.080;2023-03-18T04:06:32;100955.77;;;11.17;74.02
58967;BME280;44744;51.894;5.080;2023-03-18T04:07:32;100955.34;;;11.16;74.18
58967;BME280;44744;51.894;5.080;2023-03-18T04:08:33;100956.39;;;11.16;74.14
58967;BME280;44744;51.894;5.080;2023-03-18T04:09:33;100958.88;;;11.16;74.30
58967;BME280;44744;51.894;5.080;2023-03-18T04:10:34;100958.20;;;11.15;74.25
58967;BME280;44744;51.894;5.080;2023-03-18T04:11:34;100961.24;;;11.14;74.43
58967;BME280;44744;51.894;5.080;2023-03-18T04:12:35;100959.83;;;11.14;74.52
58967;BME280;44744;51.894;5.080;2023-03-18T04:13:35;100959.85;;;11.14;74.54
58967;BME280;44744;51.894;5.080;2023-03-18T04:14:36;100960.25;;;11.13;74.45
58967;BME280;44744;51.894;5.080;2023-03-18T04:15:36;100957.08;;;11.13;74.55
58967;BME280;44744;51.894;5.080;2023-03-18T04:16:37;100959.02;;;11.13;74.64
58967;BME280;44744;51.894;5.080;2023-03-18T04:17:37;100959.29;;;11.12;74.67
58967;BME280;44744;51.894;5.080;2023-03-18T04:18:37;100958.60;;;11.11;74.98
58967;BME280;44744;51.894;5.080;2023-03-18T04:19:41;100957.88;;;11.11;74.84
58967;BME280;44744;51.894;5.080;2023-03-18T04:20:42;100958.63;;;11.10;74.77
58967;BME280;44744;51.894;5.080;2023-03-18T04:21:42;100957.46;;;11.09;75.01
58967;BME280;44744;51.894;5.080;2023-03-18T04:22:43;100960.77;;;11.09;75.00
58967;BME280;44744;51.894;5.080;2023-03-18T04:23:43;100958.21;;;11.08;75.17
58967;BME280;44744;51.894;5.080;2023-03-18T04:24:44;100962.02;;;11.06;75.21
58967;BME280;44744;51.894;5.080;2023-03-18T04:25:44;100963.46;;;11.06;75.33
58967;BME280;44744;51.894;5.080;2023-03-18T04:26:45;100967.55;;;11.06;75.33
58967;BME280;44744;51.894;5.080;2023-03-18T04:27:45;100967.62;;;11.05;75.28
58967;BME280;44744;51.894;5.080;2023-03-18T04:28:45;100965.35;;;11.04;75.61
58967;BME280;44744;51.894;5.080;2023-03-18T04:29:46;100966.33;;;11.02;75.60
58967;BME280;44744;51.894;5.080;2023-03-18T04:30:47;100967.83;;;11.01;75.82
58967;BME280;44744;51.894;5.080;2023-03-18T04:31:48;100968.54;;;11.01;75.71
58967;BME280;44744;51.894;5.080;2023-03-18T04:32:48;100970.02;;;11.00;75.85
58967;BME280;44744;51.894;5.080;2023-03-18T04:33:49;100969.38;;;10.99;76.28
58967;BME280;44744;51.894;5.080;2023-03-18T04:34:49;100968.39;;;10.97;76.56
58967;BME280;44744;51.894;5.080;2023-03-18T04:35:49;100966.92;;;10.95;76.37
58967;BME280;44744;51.894;5.080;2023-03-18T04:36:50;100965.90;;;10.94;76.52
58967;BME280;44744;51.894;5.080;2023-03-18T04:37:50;100969.26;;;10.94;76.60
58967;BME280;44744;51.894;5.080;2023-03-18T04:38:50;100966.32;;;10.92;76.66
58967;BME280;44744;51.894;5.080;2023-03-18T04:39:51;100969.71;;;10.92;76.61
58967;BME280;44744;51.894;5.080;2023-03-18T04:40:51;100971.11;;;10.92;76.64
58967;BME280;44744;51.894;5.080;2023-03-18T04:41:51;100975.83;;;10.93;76.68
58967;BME280;44744;51.894;5.080;2023-03-18T04:42:52;100971.98;;;10.93;76.80
58967;BME280;44744;51.894;5.080;2023-03-18T04:43:52;100976.26;;;10.92;76.83
58967;BME280;44744;51.894;5.080;2023-03-18T04:44:52;100975.77;;;10.91;76.83
58967;BME280;44744;51.894;5.080;2023-03-18T04:45:52;100978.95;;;10.91;76.98
58967;BME280;44744;51.894;5.080;2023-03-18T04:46:53;100973.30;;;10.91;77.11
58967;BME280;44744;51.894;5.080;2023-03-18T04:47:53;100974.02;;;10.91;77.11
58967;BME280;44744;51.894;5.080;2023-03-18T04:48:54;100976.02;;;10.90;77.00
58967;BME280;44744;51.894;5.080;2023-03-18T04:49:55;100973.73;;;10.89;77.21
58967;BME280;44744;51.894;5.080;2023-03-18T04:50:55;100978.00;;;10.89;77.35
58967;BME280;44744;51.894;5.080;2023-03-18T04:51:55;100977.71;;;10.88;77.28
58967;BME280;44744;51.894;5.080;2023-03-18T04:52:56;100980.34;;;10.88;77.26
58967;BME280;44744;51.894;5.080;2023-03-18T04:53:56;100973.35;;;10.87;77.43
58967;BME280;44744;51.894;5.080;2023-03-18T04:54:56;100977.22;;;10.87;77.35
58967;BME280;44744;51.894;5.080;2023-03-18T04:55:57;100981.45;;;10.88;77.48
58967;BME280;44744;51.894;5.080;2023-03-18T04:56:57;100983.20;;;10.88;77.46
58967;BME280;44744;51.894;5.080;2023-03-18T04:57:59;100985.30;;;10.89;78.32
58967;BME280;44744;51.894;5.080;2023-03-18T04:58:59;100984.72;;;10.86;78.02
58967;BME280;44744;51.894;5.080;2023-03-18T05:00:00;100988.95;;;10.83;78.06
58967;BME280;44744;51.894;5.080;2023-03-18T05:01:00;100988.70;;;10.81;78.18
58967;BME280;44744;51.894;5.080;2023-03-18T05:02:01;100985.82;;;10.82;78.18
58967;BME280;44744;51.894;5.080;2023-03-18T05:03:01;100988.14;;;10.82;78.35
58967;BME280;44744;51.894;5.080;2023-03-18T05:04:01;100987.16;;;10.80;78.37
58967;BME280;44744;51.894;5.080;2023-03-18T05:05:02;100989.47;;;10.80;78.54
58967;BME280;44744;51.894;5.080;2023-03-18T05:06:06;100984.23;;;10.79;78.69
58967;BME280;44744;51.894;5.080;2023-03-18T05:07:07;100990.59;;;10.79;78.70
58967;BME280;44744;51.894;5.080;2023-03-18T05:08:07;100994.35;;;10.78;78.75
58967;BME280;44744;51.894;5.080;2023-03-18T05:09:07;100995.25;;;10.78;78.81
58967;BME280;44744;51.894;5.080;2023-03-18T05:10:08;100993.86;;;10.77;78.84
58967;BME280;44744;51.894;5.080;2023-03-18T05:11:09;100994.42;;;10.77;79.00
58967;BME280;44744;51.894;5.080;2023-03-18T05:12:13;100992.54;;;10.75;78.99
58967;BME280;44744;51.894;5.080;2023-03-18T05:13:15;100991.45;;;10.75;78.90
58967;BME280;44744;51.894;5.080;2023-03-18T05:14:15;100993.23;;;10.76;78.90
58967;BME280;44744;51.894;5.080;2023-03-18T05:15:16;100989.55;;;10.75;79.11
58967;BME280;44744;51.894;5.080;2023-03-18T05:16:46;100992.41;;;10.74;79.25
58967;BME280;44744;51.894;5.080;2023-03-18T05:17:46;100991.22;;;10.73;79.24
58967;BME280;44744;51.894;5.080;2023-03-18T05:18:47;100994.63;;;10.73;79.21
58967;BME280;44744;51.894;5.080;2023-03-18T05:19:47;100993.93;;;10.73;79.27
58967;BME280;44744;51.894;5.080;2023-03-18T05:20:48;100999.73;;;10.73;79.27
58967;BME280;44744;51.894;5.080;2023-03-18T05:21:48;100997.59;;;10.73;79.45
58967;BME280;44744;51.894;5.080;2023-03-18T05:22:51;100997.04;;;10.74;79.41
58967;BME280;44744;51.894;5.080;2023-03-18T05:23:51;100998.38;;;10.75;79.48
58967;BME280;44744;51.894;5.080;2023-03-18T05:24:52;100997.50;;;10.75;79.19
58967;BME280;44744;51.894;5.080;2023-03-18T05:25:52;101000.29;;;10.76;79.41
58967;BME280;44744;51.894;5.080;2023-03-18T05:26:52;100997.77;;;10.77;79.39
58967;BME280;44744;51.894;5.080;2023-03-18T05:27:53;100996.48;;;10.78;79.34
58967;BME280;44744;51.894;5.080;2023-03-18T05:28:53;100997.50;;;10.79;79.33
58967;BME280;44744;51.894;5.080;2023-03-18T05:29:53;100999.27;;;10.79;79.36
58967;BME280;44744;51.894;5.080;2023-03-18T05:30:54;100996.27;;;10.79;79.25
58967;BME280;44744;51.894;5.080;2023-03-18T05:31:54;100998.59;;;10.78;79.38
58967;BME280;44744;51.894;5.080;2023-03-18T05:32:54;101003.67;;;10.79;79.47
58967;BME280;44744;51.894;5.080;2023-03-18T05:33:55;101006.35;;;10.79;79.61